Flight Track Log - Related Links

Times and Time Zones

All times are in EDT time to prevent confusion due to time zone crossing. See the SWA3924 flight status page for this flight to view local times or setup timezone preferences in your user account.

Time Position Orientation Groundspeed Altitude Reporting Facility
EDT Latitude Longitude Course Direction KTS MPH feet Rate Location/Type
Sun 01:30:18 PM 28.4333 -81.3000 360° North 149 171 500  Level Orlando TRACON
Sun 01:31:01 PM 28.4667 -81.3000 360° North 186 214 1,800 2,353 Climbing Orlando TRACON
Sun 01:32:00 PM 28.5167 -81.3167 344° North 220 253 4,500 2,800 Climbing Orlando TRACON
Sun 01:33:01 PM 28.5667 -81.3500 330° Northwest 265 305 7,400 1,654 Climbing Orlando TRACON
Sun 01:34:07 PM 28.5833 -81.4333 283° West 254 292 8,000 1,429 Climbing Orlando TRACON
Sun 01:35:07 PM 28.5667 -81.5167 257° West 261 300 10,400 2,526 Climbing Orlando TRACON
Sun 01:36:39 PM 28.5614 -81.6753 268° West 331 381 14,400 2,171 Climbing Jacksonville Center
Sun 01:37:39 PM 28.5542 -81.7817 266° West 336 387 15,900 1,750 Climbing Jacksonville Center
Sun 01:38:39 PM 28.5508 -81.8858 268° West 341 392 17,900 2,500 Climbing Jacksonville Center
Sun 01:39:39 PM 28.5433 -82.0017 266° West 351 404 20,900 2,850 Climbing Jacksonville Center
Sun 01:40:39 PM 28.5378 -82.1150 267° West 358 412 23,600 2,450 Climbing Jacksonville Center
Sun 01:41:39 PM 28.5322 -82.2333 267° West 370 426 25,800 1,500 Climbing Jacksonville Center
Sun 01:42:39 PM 28.5286 -82.3561 268° West 383 441 26,600 850 Climbing Jacksonville Center
Sun 01:43:39 PM 28.5500 -82.4742 282° West 379 436 27,500 1,250 Climbing Jacksonville Center
Sun 01:44:39 PM 28.6378 -82.5686 317° Northwest 379 436 29,100 1,750 Climbing Jacksonville Center
Sun 01:45:39 PM 28.7297 -82.6511 322° Northwest 398 458 31,000 2,100 Climbing Jacksonville Center
Sun 01:46:39 PM 28.8489 -82.6933 343° North 410 472 33,300 2,000 Climbing Jacksonville Center
Sun 01:47:39 PM 28.9639 -82.7336 343° North 421 484 35,000 1,550 Climbing Jacksonville Center
Sun 01:48:39 PM 29.0806 -82.7739 343° North 427 491 36,400 1,250 Climbing Jacksonville Center
Sun 01:49:39 PM 29.1956 -82.8142 343° North 432 497 37,500 800 Climbing Jacksonville Center
Sun 01:50:39 PM 29.3125 -82.8569 342° North 438 504 38,000 250 Climbing Jacksonville Center
Sun 01:51:39 PM 29.4294 -82.8950 344° North 438 504 38,000  Level Jacksonville Center
Sun 01:52:39 PM 29.5378 -82.9356 342° North 443 510 38,000  Level Jacksonville Center
Sun 01:53:39 PM 29.6569 -82.9786 343° North 443 510 38,000  Level Jacksonville Center
Sun 01:54:39 PM 29.7736 -83.0194 343° North 443 510 38,000  Level Jacksonville Center
Sun 01:55:39 PM 29.8906 -83.0603 343° North 443 510 38,000  Level Jacksonville Center
Sun 01:56:39 PM 30.0075 -83.1014 343° North 438 504 38,000  Level Jacksonville Center
Sun 01:57:39 PM 30.1264 -83.1400 344° North 443 510 38,000  Level Jacksonville Center
Sun 01:58:39 PM 30.2433 -83.1811 343° North 443 510 38,000  Level Jacksonville Center
Sun 01:59:39 PM 30.3600 -83.2247 342° North 443 510 38,000  Level Jacksonville Center
Sun 02:00:39 PM 30.4769 -83.2639 344° North 443 510 38,000  Level Jacksonville Center
Sun 02:01:39 PM 30.5917 -83.3053 343° North 443 510 38,000  Level Jacksonville Center
Sun 02:02:39 PM 30.7083 -83.3492 342° North 438 504 38,000  Level Jacksonville Center
Sun 02:03:39 PM 30.8333 -83.3958 342° North 438 504 38,000  Level Jacksonville Center
Sun 02:04:39 PM 30.9378 -83.4328 343° North 432 497 38,000  Level Jacksonville Center
Sun 02:05:39 PM 31.0503 -83.4722 343° North 432 497 38,000  Level Jacksonville Center
Sun 02:06:39 PM 31.1669 -83.5167 342° North 432 497 38,000  Level Jacksonville Center
Sun 02:08:57 PM 31.4433 -83.6178 343° North 447 514 38,000  Level Atlanta Center
Sun 02:09:57 PM 31.5603 -83.6586 343° North 441 507 38,000  Level Atlanta Center
Sun 02:10:57 PM 31.6897 -83.7094 342° North 441 507 38,000  Level Atlanta Center
Sun 02:11:57 PM 31.8089 -83.7531 343° North 441 507 38,000  Level Atlanta Center
Sun 02:12:57 PM 31.9197 -83.7917 344° North 457 526 38,000  Level Atlanta Center
Sun 02:13:57 PM 32.0344 -83.8356 342° North 451 519 38,000  Level Atlanta Center
Sun 02:14:57 PM 32.1514 -83.8769 343° North 445 512 38,000  Level Atlanta Center
Sun 02:15:57 PM 32.2706 -83.9233 342° North 445 512 38,000  Level Atlanta Center
Sun 02:16:57 PM 32.3894 -83.9650 344° North 445 512 38,000  Level Atlanta Center
Sun 02:17:57 PM 32.5083 -84.0117 342° North 445 512 38,000  Level Atlanta Center
Sun 02:18:57 PM 32.6294 -84.0586 342° North 445 512 38,000  Level Atlanta Center
Sun 02:19:57 PM 32.7486 -84.1031 343° North 445 512 38,000  Level Atlanta Center
Sun 02:20:57 PM 32.8717 -84.1478 343° North 445 512 38,000  Level Atlanta Center
Sun 02:21:57 PM 32.9925 -84.1972 341° North 445 512 38,000  Level Atlanta Center
Sun 02:22:57 PM 33.1136 -84.2397 344° North 445 512 38,000  Level Atlanta Center
Sun 02:23:57 PM 33.2367 -84.2872 342° North 456 525 38,000  Level Atlanta Center
Sun 02:24:57 PM 33.3744 -84.3397 342° North 463 533 38,000  Level Atlanta Center
Sun 02:25:57 PM 33.4972 -84.3875 342° North 463 533 38,000  Level Atlanta Center
Sun 02:26:57 PM 33.6183 -84.4356 342° North 454 522 38,000  Level Atlanta Center
Sun 02:27:57 PM 33.7350 -84.4858 340° North 447 514 38,000  Level Atlanta Center
Sun 02:28:57 PM 33.8600 -84.5392 340° North 453 521 38,000  Level Atlanta Center
Sun 02:29:57 PM 33.9831 -84.5925 340° North 460 529 38,000 -150 Level Atlanta Center
Sun 02:30:57 PM 34.1058 -84.6483 339° North 466 536 37,700 -550 Descending Atlanta Center
Sun 02:31:57 PM 34.2203 -84.6969 341° North 466 536 36,900 -900 Descending Atlanta Center
Sun 02:32:57 PM 34.3306 -84.7683 332° Northwest 452 520 35,900 -1,000 Descending Atlanta Center
Sun 02:33:57 PM 34.4511 -84.8600 328° Northwest 458 527 34,900 -950 Descending Atlanta Center
Sun 02:34:57 PM 34.5672 -84.9469 328° Northwest 475 547 34,000 -850 Descending Atlanta Center
Sun 02:35:57 PM 34.6564 -85.0161 327° Northwest 483 556 33,200 -1,365 Descending Atlanta Center
Sun 02:37:44 PM 34.8572 -85.1742 327° Northwest 462 532 30,200 -1,904 Descending Memphis Center
Sun 02:38:44 PM 34.9714 -85.2583 329° Northwest 472 543 27,900 -2,200 Descending Memphis Center
Sun 02:39:44 PM 35.0769 -85.3433 327° Northwest 467 537 25,800 -1,950 Descending Memphis Center
Sun 02:40:44 PM 35.1764 -85.4289 325° Northwest 462 532 24,000 -1,550 Descending Memphis Center
Sun 02:41:44 PM 35.2600 -85.5358 314° West 439 505 22,700 -1,850 Descending Memphis Center
Sun 02:42:44 PM 35.3411 -85.6381 314° West 427 491 20,300 -2,350 Descending Memphis Center
Sun 02:43:44 PM 35.4200 -85.7406 313° West 420 483 18,000 -2,350 Descending Memphis Center
Sun 02:44:44 PM 35.4989 -85.8433 313° West 415 478 15,600 -2,250 Descending Memphis Center
Sun 02:45:44 PM 35.5731 -85.9389 314° West 409 471 13,500 -2,050 Descending Memphis Center
Sun 02:46:44 PM 35.6453 -86.0372 312° West 397 457 11,500 -1,650 Descending Memphis Center
Sun 02:47:44 PM 35.7131 -86.1256 313° West 374 430 10,200 -1,300 Descending Memphis Center
Sun 02:48:44 PM 35.7681 -86.2097 309° West 340 391 8,900 -1,150 Descending Memphis Center
Sun 02:49:44 PM 35.8003 -86.3028 293° West 303 349 7,900 -1,200 Descending Memphis Center
Sun 02:50:44 PM 35.8328 -86.4011 292° West 290 334 6,500 -1,150 Descending Memphis Center
Sun 02:51:44 PM 35.8625 -86.4867 293° West 284 327 5,600 -1,100 Descending Memphis Center
Sun 02:52:44 PM 35.8900 -86.5675 293° West 267 307 4,300 -1,150 Descending Memphis Center
Sun 02:53:44 PM 35.9175 -86.6508 292° West 262 302 3,300 -900 Descending Memphis Center
Sun 02:54:44 PM 35.9589 -86.7053 313° West 227 261 2,500 -450 Descending Memphis Center
Sun 02:55:44 PM 36.0111 -86.7106 355° North 180 207 2,400 -400 Descending Memphis Center
Sun 02:56:44 PM 36.0564 -86.6906 20° North 174 200 1,700 -700 Descending Memphis Center
Sun 02:57:44 PM 36.0936 -86.6761 17° North 152 175 1,000 -550 Descending Memphis Center
Sun 02:58:44 PM 36.1328 -86.6617 17° North 140 161 600 -400 Descending Memphis Center
Sun 03:00:00 PM 36.1167 -86.6667 345° North  Level FlightAware Approximate
Sun 03:07:00 PM 36.1245 -86.6782 345° North  Level Estimated
Sun 03:08:00 PM 36.1245 -86.6782 345° North  Level Estimated
Sun 03:09:00 PM 36.1245 -86.6782 345° North  Level Estimated
Sun 03:10:00 PM 36.1245 -86.6782 345° North  Level Estimated
Sun 03:11:00 PM 36.1245 -86.6782 345° North  Level Estimated
Sun 03:12:00 PM 36.1245 -86.6782 345° North  Level Estimated
Sun 03:13:00 PM 36.1245 -86.6782 345° North  Level Estimated
Sun 03:14:00 PM 36.1245 -86.6782 345° North  Level Estimated

Login

Don't have an account? Register now (free) for customized features, flight alerts, and more!